Time;durP1;ratioP1;P1;durP2;ratioP2;P2;SDS_P1;SDS_P2;PMS_P1;PMS_P2;Temp;Humidity;BMP_temperature;BMP_pressure;BME280_temperature;BME280_humidity;BME280_pressure;Samples;Min_cycle;Max_cycle;Signal;HPM_P1;HPM_P2
2022/11/06 00:01:34;;;;;;;5.45;3.70;;;282.20;2278.40;;;;;;5088567;28;20032;-64
2022/11/06 00:04:00;;;;;;;10.43;4.90;;;282.10;1971.20;;;;;;5089639;28;20067;-61
2022/11/06 00:09:11;;;;;;;7.68;4.60;;;282.10;2252.80;;;;;;5096186;27;20397;-63
2022/11/06 00:11:39;;;;;;;18.25;12.63;;;282.10;2227.20;;;;;;5132613;27;20046;-63
2022/11/06 00:14:05;;;;;;;6.03;3.65;;;282.10;1920.00;;;;;;5132240;27;20023;-64
2022/11/06 00:16:30;;;;;;;4.93;3.20;;;282.10;1996.80;;;;;;5132382;27;20430;-64
2022/11/06 00:18:59;;;;;;;5.68;3.85;;;282.20;2278.40;;;;;;5132127;27;20019;-63
2022/11/06 00:21:27;;;;;;;9.50;6.32;;;282.20;1920.00;;;;;;5132101;27;20471;-64
2022/11/06 00:23:55;;;;;;;5.15;3.38;;;282.10;2124.80;;;;;;5132317;27;20110;-65
2022/11/06 00:26:23;;;;;;;5.13;3.42;;;282.20;2099.20;;;;;;5132242;27;20023;-61
2022/11/06 00:28:50;;;;;;;8.63;5.03;;;282.20;2278.40;;;;;;5132224;27;20035;-65
2022/11/06 00:31:18;;;;;;;6.32;5.47;;;282.20;2278.40;;;;;;5131714;27;20537;-63
2022/11/06 00:33:44;;;;;;;5.03;3.08;;;282.30;2278.40;;;;;;5132144;27;20030;-63
2022/11/06 00:36:12;;;;;;;4.82;2.85;;;282.20;2278.40;;;;;;5132004;27;20035;-60
2022/11/06 00:38:39;;;;;;;5.97;3.78;;;282.10;2252.80;;;;;;5132113;27;20026;-62
2022/11/06 00:41:07;;;;;;;4.93;3.38;;;282.10;2278.40;;;;;;5131669;27;20127;-64
2022/11/06 00:43:34;;;;;;;5.93;3.70;;;282.20;2278.40;;;;;;5131631;27;20072;-58
2022/11/06 00:46:05;;;;;;;4.25;3.13;;;282.20;2278.40;;;;;;5131722;27;20016;-61
2022/11/06 00:48:32;;;;;;;5.70;4.35;;;282.30;2278.40;;;;;;5131695;27;20035;-61
2022/11/06 00:51:06;;;;;;;83.93;38.60;;;282.30;2278.40;;;;;;5131428;27;20023;-60
2022/11/06 00:53:32;;;;;;;20.90;11.75;;;282.30;2278.40;;;;;;5131903;27;20072;-64
2022/11/06 00:56:06;;;;;;;13.30;8.15;;;282.40;2278.40;;;;;;5131396;27;20034;-62
2022/11/06 00:58:32;;;;;;;5.82;3.45;;;282.30;2278.40;;;;;;5131660;27;20031;-64
2022/11/06 01:01:08;;;;;;;77.13;40.28;;;282.20;2278.40;;;;;;5131363;27;20102;-60
2022/11/06 01:03:34;;;;;;;9.32;5.82;;;282.20;2278.40;;;;;;5131169;27;20026;-66
2022/11/06 01:06:20;;;;;;;7.53;4.82;;;282.30;2278.40;;;;;;5131858;27;20129;-63
2022/11/06 01:08:47;;;;;;;5.88;3.20;;;282.20;2278.40;;;;;;5131297;27;20015;-70
2022/11/06 01:11:14;;;;;;;6.00;3.42;;;282.30;2278.40;;;;;;5131403;27;20035;-61
2022/11/06 01:13:43;;;;;;;5.78;3.75;;;282.30;2278.40;;;;;;5131651;27;20015;-59
2022/11/06 01:16:12;;;;;;;6.00;3.97;;;282.30;2278.40;;;;;;5131179;27;20116;-65
2022/11/06 01:18:39;;;;;;;8.13;5.53;;;282.30;2278.40;;;;;;5131265;27;20072;-62
2022/11/06 01:21:07;;;;;;;5.43;3.90;;;282.30;2278.40;;;;;;5131152;27;20366;-62
2022/11/06 01:23:33;;;;;;;5.82;3.45;;;282.20;2278.40;;;;;;5131063;27;20468;-62
2022/11/06 01:26:01;;;;;;;7.95;4.03;;;282.20;2278.40;;;;;;5131267;27;20104;-59
2022/11/06 01:28:27;;;;;;;7.63;3.85;;;282.30;2278.40;;;;;;5131039;27;20068;-58
2022/11/06 01:30:53;;;;;;;8.88;5.03;;;282.20;2278.40;;;;;;5130928;27;20023;-62
2022/11/06 01:33:19;;;;;;;6.43;4.38;;;282.10;2278.40;;;;;;5131220;27;20400;-64
2022/11/06 01:35:49;;;;;;;4.63;3.20;;;282.20;2278.40;;;;;;5130936;28;20114;-58
2022/11/06 01:38:16;;;;;;;16.40;7.88;;;282.20;2278.40;;;;;;5130713;28;20023;-62
2022/11/06 01:40:45;;;;;;;7.78;4.70;;;282.20;2278.40;;;;;;5135497;27;20508;-58
2022/11/06 01:43:18;;;;;;;6.40;4.05;;;282.20;2278.40;;;;;;5140033;27;20019;-61
2022/11/06 01:45:48;;;;;;;9.25;5.35;;;282.30;2278.40;;;;;;5140513;27;20030;-66
2022/11/06 01:48:17;;;;;;;8.48;4.53;;;282.20;1920.00;;;;;;5138996;27;20464;-65
2022/11/06 01:50:46;;;;;;;4.80;3.03;;;282.20;2278.40;;;;;;5130413;28;20075;-59
2022/11/06 01:53:13;;;;;;;11.90;5.88;;;282.20;2278.40;;;;;;5130830;27;20267;-59
2022/11/06 01:55:43;;;;;;;92.07;42.67;;;282.30;2278.40;;;;;;5130708;27;20043;-69
2022/11/06 01:58:12;;;;;;;18.55;10.35;;;282.20;2278.40;;;;;;5130377;27;20015;-66
2022/11/06 02:00:38;;;;;;;12.65;7.63;;;282.30;2278.40;;;;;;5130448;27;20025;-67
2022/11/06 02:03:05;;;;;;;33.85;17.70;;;282.20;2278.40;;;;;;5130100;28;20042;-59
2022/11/06 02:05:31;;;;;;;6.88;4.70;;;282.10;2278.40;;;;;;5130436;27;20021;-68
2022/11/06 02:07:59;;;;;;;9.63;6.68;;;282.30;2278.40;;;;;;5130414;27;20015;-64
2022/11/06 02:10:25;;;;;;;7.80;4.22;;;282.30;2278.40;;;;;;5130835;28;20091;-61
2022/11/06 02:13:17;;;;;;;8.57;5.68;;;282.30;2278.40;;;;;;5130815;28;20031;-63
2022/11/06 02:16:00;;;;;;;6.03;4.28;;;282.30;2278.40;;;;;;5130790;28;20035;-59
2022/11/06 02:18:50;;;;;;;6.95;4.45;;;282.30;2278.40;;;;;;5130501;28;20373;-58
2022/11/06 02:21:29;;;;;;;5.15;2.95;;;282.30;2278.40;;;;;;5130491;28;20052;-57
2022/11/06 02:24:11;;;;;;;9.40;3.67;;;282.40;2278.40;;;;;;5132194;27;20059;-67
2022/11/06 02:27:00;;;;;;;5.95;2.90;;;282.30;2278.40;;;;;;5134505;27;20015;-68
2022/11/06 02:29:48;;;;;;;5.60;3.50;;;282.30;2278.40;;;;;;5134362;27;20052;-62
2022/11/06 02:32:22;;;;;;;8.40;3.33;;;282.30;2278.40;;;;;;5134223;27;20077;-59
2022/11/06 02:34:51;;;;;;;5.38;3.42;;;282.30;2278.40;;;;;;5134529;27;20031;-60
2022/11/06 02:37:23;;;;;;;6.00;4.30;;;282.20;2278.40;;;;;;5134273;27;20024;-67
2022/11/06 02:39:51;;;;;;;6.78;3.92;;;282.30;2278.40;;;;;;5134086;27;20053;-60
2022/11/06 02:42:19;;;;;;;6.82;4.15;;;282.20;1971.20;;;;;;5134102;27;20374;-68
2022/11/06 02:44:48;;;;;;;6.22;3.45;;;282.20;2201.60;;;;;;5133932;27;20465;-59
2022/11/06 02:47:15;;;;;;;5.65;3.47;;;282.20;2278.40;;;;;;5133966;27;20023;-61
2022/11/06 02:49:54;;;;;;;5.38;3.97;;;282.20;2278.40;;;;;;5134420;27;20023;-58
2022/11/06 02:52:23;;;;;;;5.22;3.47;;;282.20;1945.60;;;;;;5134004;27;20031;-61
2022/11/06 02:54:56;;;;;;;13.23;7.78;;;282.30;2278.40;;;;;;5133887;27;20364;-68
2022/11/06 02:57:25;;;;;;;7.35;4.20;;;282.40;2278.40;;;;;;5134162;27;20076;-60
2022/11/06 03:00:01;;;;;;;5.88;3.80;;;282.30;1920.00;;;;;;5134107;27;20091;-62
2022/11/06 03:02:43;;;;;;;6.07;3.97;;;282.40;2278.40;;;;;;5133714;27;20028;-58
2022/11/06 03:05:39;;;;;;;7.05;4.68;;;282.30;2278.40;;;;;;5133790;27;20019;-68
2022/11/06 03:08:21;;;;;;;6.13;4.25;;;282.30;1920.00;;;;;;5132867;27;20060;-65
2022/11/06 03:11:08;;;;;;;10.27;5.32;;;282.20;2252.80;;;;;;5133447;27;20019;-63
2022/11/06 03:13:51;;;;;;;7.28;4.85;;;282.20;2278.40;;;;;;5133536;27;20152;-60
2022/11/06 03:16:59;;;;;;;7.35;5.00;;;282.30;2278.40;;;;;;5133554;27;20034;-61
2022/11/06 03:20:02;;;;;;;7.85;3.72;;;282.20;2278.40;;;;;;5030616;28;20408;-63
2022/11/06 03:22:39;;;;;;;7.82;4.53;;;282.20;2278.40;;;;;;5030245;28;20025;-61
2022/11/06 03:25:14;;;;;;;8.82;6.53;;;282.20;2278.40;;;;;;5041177;28;20041;-59
2022/11/06 03:28:06;;;;;;;5.53;3.90;;;282.20;2124.80;;;;;;5050167;28;20507;-65
2022/11/06 03:30:37;;;;;;;5.25;3.83;;;282.20;2278.40;;;;;;5045128;28;20060;-62
2022/11/06 03:33:33;;;;;;;5.07;3.50;;;282.10;2278.40;;;;;;5049562;28;20075;-60
2022/11/06 03:36:11;;;;;;;7.50;3.50;;;282.20;2278.40;;;;;;5049563;28;20546;-62
2022/11/06 03:38:45;;;;;;;5.13;3.67;;;282.20;2278.40;;;;;;5032953;28;20041;-64
2022/11/06 03:41:31;;;;;;;13.88;4.05;;;282.20;2278.40;;;;;;5049858;28;20052;-61
2022/11/06 03:44:00;;;;;;;6.47;3.85;;;282.20;2278.40;;;;;;5049565;28;20043;-57
2022/11/06 03:46:31;;;;;;;4.75;3.50;;;282.30;2278.40;;;;;;5049515;28;20087;-59
2022/11/06 03:49:11;;;;;;;5.75;3.85;;;282.20;1945.60;;;;;;5051839;27;20029;-60
2022/11/06 03:51:43;;;;;;;5.13;3.20;;;282.20;1996.80;;;;;;5153286;27;20480;-57
2022/11/06 03:54:25;;;;;;;6.03;3.60;;;282.20;2278.40;;;;;;5153461;27;20091;-61
2022/11/06 03:56:57;;;;;;;6.93;3.85;;;282.10;2278.40;;;;;;5153620;27;20067;-59
2022/11/06 03:59:28;;;;;;;8.00;3.97;;;282.10;2278.40;;;;;;5153505;27;20371;-58
2022/11/06 04:01:57;;;;;;;4.03;3.35;;;282.10;2278.40;;;;;;5153110;27;20326;-60
2022/11/06 04:04:48;;;;;;;4.40;2.80;;;282.20;2176.00;;;;;;5153604;27;20026;-57
2022/11/06 04:07:18;;;;;;;5.00;4.10;;;282.20;2150.40;;;;;;5069436;28;20032;-60
2022/11/06 04:15:21;;;;;;;14.40;13.10;;;282.10;2278.40;;;;;;5069257;28;20151;-59
2022/11/06 04:17:47;;;;;;;4.20;3.50;;;282.20;2278.40;;;;;;5051445;28;20032;-63
2022/11/06 04:23:17;;;;;;;5.47;4.70;;;282.20;2278.40;;;;;;5068820;28;20085;-64
2022/11/06 04:29:09;;;;;;;3.63;2.38;;;282.00;2278.40;;;;;;5069076;28;20051;-58
2022/11/06 04:31:56;;;;;;;4.78;3.47;;;282.20;2278.40;;;;;;5068612;28;20094;-63
2022/11/06 04:34:42;;;;;;;8.07;7.40;;;282.00;2278.40;;;;;;5068589;28;20516;-64
2022/11/06 04:37:17;;;;;;;5.97;4.93;;;282.10;2201.60;;;;;;5068805;28;20095;-63
2022/11/06 04:40:09;;;;;;;13.68;12.63;;;282.00;2278.40;;;;;;5068671;28;20557;-64
2022/11/06 04:42:49;;;;;;;7.50;5.35;;;282.00;2099.20;;;;;;5066574;28;20053;-63
2022/11/06 04:45:23;;;;;;;12.77;11.80;;;282.00;2278.40;;;;;;5144878;27;20113;-61
2022/11/06 04:47:51;;;;;;;5.47;4.18;;;282.00;2278.40;;;;;;5152224;27;20027;-63
2022/11/06 04:50:19;;;;;;;7.97;7.28;;;282.00;2278.40;;;;;;5152051;27;20109;-64
2022/11/06 04:52:46;;;;;;;11.23;10.32;;;282.00;2278.40;;;;;;5134120;27;20045;-60
2022/11/06 04:55:12;;;;;;;6.45;5.88;;;282.00;2176.00;;;;;;5152467;27;20049;-61
2022/11/06 04:57:37;;;;;;;5.43;4.22;;;282.10;2099.20;;;;;;5152226;27;20018;-61
2022/11/06 05:00:03;;;;;;;4.00;3.58;;;282.10;2278.40;;;;;;5152179;27;20095;-60
2022/11/06 05:02:29;;;;;;;3.67;2.80;;;282.20;2278.40;;;;;;5152086;27;20064;-62
2022/11/06 05:04:55;;;;;;;3.65;2.35;;;282.10;2252.80;;;;;;5152083;27;20101;-64
2022/11/06 05:07:20;;;;;;;4.10;2.58;;;282.00;2278.40;;;;;;5152570;27;20452;-65
2022/11/06 05:09:46;;;;;;;3.38;2.55;;;282.00;2278.40;;;;;;5152035;27;20515;-63
2022/11/06 05:12:12;;;;;;;3.80;2.17;;;282.00;2278.40;;;;;;5152362;27;20079;-62
2022/11/06 05:14:38;;;;;;;4.03;2.53;;;282.00;2278.40;;;;;;5152132;27;20058;-59
2022/11/06 05:17:03;;;;;;;6.63;3.08;;;282.00;2278.40;;;;;;5151926;27;20026;-62
2022/11/06 05:19:29;;;;;;;6.95;3.38;;;282.00;2278.40;;;;;;5152168;27;20026;-62
2022/11/06 05:24:39;;;;;;;3.30;1.98;;;282.10;2278.40;;;;;;5152321;27;20446;-61
2022/11/06 05:27:05;;;;;;;5.72;2.65;;;282.10;2278.40;;;;;;5152084;27;20026;-61
2022/11/06 05:29:30;;;;;;;4.68;3.58;;;282.10;2278.40;;;;;;5152127;27;20022;-63
2022/11/06 05:31:56;;;;;;;5.75;4.90;;;282.10;2278.40;;;;;;5151767;27;20022;-60
2022/11/06 05:34:21;;;;;;;4.97;3.25;;;282.10;2278.40;;;;;;5150988;27;20039;-63
2022/11/06 05:36:47;;;;;;;3.80;2.45;;;282.20;2278.40;;;;;;5133315;27;20015;-62
2022/11/06 05:39:13;;;;;;;3.67;2.40;;;282.30;2278.40;;;;;;5151635;27;20128;-62
2022/11/06 05:41:38;;;;;;;3.78;2.13;;;282.20;2278.40;;;;;;5151771;27;20047;-61
2022/11/06 05:44:04;;;;;;;4.55;2.20;;;282.20;2278.40;;;;;;5151714;27;20409;-65
2022/11/06 05:46:31;;;;;;;3.85;1.73;;;282.30;2278.40;;;;;;5151979;27;20053;-61
2022/11/06 05:48:56;;;;;;;4.07;2.17;;;282.30;2278.40;;;;;;5151484;27;20479;-59
2022/11/06 05:51:22;;;;;;;2.92;1.88;;;282.30;2278.40;;;;;;5151722;27;20027;-64
2022/11/06 05:53:48;;;;;;;3.78;2.20;;;282.30;2278.40;;;;;;5152027;27;20011;-68
2022/11/06 05:56:13;;;;;;;4.40;1.98;;;282.20;2278.40;;;;;;5151807;27;20062;-65
2022/11/06 05:58:39;;;;;;;3.30;1.90;;;282.20;2278.40;;;;;;5155030;27;20517;-62
2022/11/06 06:01:05;;;;;;;3.45;2.17;;;282.30;2278.40;;;;;;5155716;27;20037;-65
2022/11/06 06:03:30;;;;;;;4.95;2.15;;;282.30;2278.40;;;;;;5155602;27;20018;-64
2022/11/06 06:05:56;;;;;;;4.18;1.92;;;282.30;2278.40;;;;;;5155476;27;20023;-65
2022/11/06 06:08:22;;;;;;;3.97;2.10;;;282.30;2278.40;;;;;;5155628;27;20030;-63
2022/11/06 06:10:48;;;;;;;4.00;2.35;;;282.20;1894.40;;;;;;5155474;27;20458;-58
2022/11/06 06:13:15;;;;;;;3.60;2.20;;;282.20;2073.60;;;;;;5155584;27;20030;-61
2022/11/06 06:15:41;;;;;;;3.35;2.50;;;282.10;2124.80;;;;;;5155414;27;20035;-64
2022/11/06 06:18:08;;;;;;;5.07;2.88;;;282.10;2278.40;;;;;;5155381;27;20109;-59
2022/11/06 06:20:34;;;;;;;3.53;2.05;;;282.20;1945.60;;;;;;5155404;27;20023;-60
2022/11/06 06:23:00;;;;;;;3.70;2.53;;;282.20;1945.60;;;;;;5155326;27;20105;-65
2022/11/06 06:25:27;;;;;;;3.75;2.33;;;282.20;2278.40;;;;;;5155441;27;20103;-61
2022/11/06 06:27:53;;;;;;;4.15;2.67;;;282.20;1894.40;;;;;;5155214;27;20019;-58
2022/11/06 06:30:21;;;;;;;5.63;2.55;;;282.20;2278.40;;;;;;5155263;27;20107;-63
2022/11/06 06:32:46;;;;;;;4.82;2.88;;;282.20;2201.60;;;;;;5155033;27;20440;-65
2022/11/06 06:35:12;;;;;;;3.78;2.60;;;282.30;2278.40;;;;;;5155093;27;20093;-58
2022/11/06 06:37:38;;;;;;;3.78;3.15;;;282.30;2201.60;;;;;;5155046;27;20057;-61
2022/11/06 06:40:04;;;;;;;6.78;6.18;;;282.30;2278.40;;;;;;5154723;27;20026;-63
2022/11/06 06:42:31;;;;;;;8.40;4.00;;;282.40;1894.40;;;;;;5155171;27;20479;-59
2022/11/06 06:44:57;;;;;;;96.35;63.40;;;282.40;2278.40;;;;;;5154749;27;20114;-66
2022/11/06 06:47:22;;;;;;;11.60;8.07;;;282.40;2278.40;;;;;;5154881;27;20115;-62
2022/11/06 06:49:48;;;;;;;20.60;12.05;;;282.40;1894.40;;;;;;5154835;27;20098;-65
2022/11/06 06:52:14;;;;;;;8.25;6.10;;;282.50;2278.40;;;;;;5135736;27;20489;-60
2022/11/06 06:54:40;;;;;;;68.60;45.85;;;282.40;2278.40;;;;;;5154820;27;20399;-61
2022/11/06 06:57:08;;;;;;;23.20;17.77;;;282.50;2278.40;;;;;;5154638;27;20114;-66
2022/11/06 06:59:34;;;;;;;11.65;8.90;;;282.40;2278.40;;;;;;5154502;27;20023;-62
2022/11/06 07:02:00;;;;;;;14.57;11.98;;;282.30;2252.80;;;;;;5154708;27;20375;-65
2022/11/06 07:04:26;;;;;;;9.93;5.75;;;282.30;2278.40;;;;;;5154199;27;20014;-64
2022/11/06 07:06:55;;;;;;;5.78;4.10;;;282.10;2278.40;;;;;;5154518;27;20027;-65
2022/11/06 07:09:22;;;;;;;6.03;4.07;;;282.10;2278.40;;;;;;5153763;27;20026;-57
2022/11/06 07:11:48;;;;;;;9.38;5.85;;;282.20;2278.40;;;;;;5154609;27;20031;-65
2022/11/06 07:14:14;;;;;;;9.40;5.05;;;282.20;2278.40;;;;;;5154228;27;20155;-64
2022/11/06 07:16:40;;;;;;;7.80;5.13;;;282.50;2124.80;;;;;;5154622;27;20030;-65
2022/11/06 07:19:05;;;;;;;7.47;4.78;;;282.30;2278.40;;;;;;5154187;27;20023;-64
2022/11/06 07:21:31;;;;;;;8.07;5.28;;;282.30;2278.40;;;;;;5154326;27;20062;-67
2022/11/06 07:23:57;;;;;;;8.27;4.18;;;282.50;2278.40;;;;;;5154110;27;20019;-66
2022/11/06 07:26:22;;;;;;;9.75;4.88;;;282.40;2278.40;;;;;;5154371;27;20022;-67
2022/11/06 07:28:48;;;;;;;7.70;5.40;;;282.40;2150.40;;;;;;5154265;27;20464;-65
2022/11/06 07:31:14;;;;;;;7.97;5.15;;;282.40;1996.80;;;;;;5154001;27;20022;-68
2022/11/06 07:33:40;;;;;;;8.45;6.30;;;282.50;2278.40;;;;;;5154006;27;20033;-62
2022/11/06 07:36:11;;;;;;;9.43;7.30;;;282.50;2278.40;;;;;;5153727;27;20045;-64
2022/11/06 07:38:38;;;;;;;18.00;16.38;;;282.40;2073.60;;;;;;5153862;27;20019;-64
2022/11/06 07:41:06;;;;;;;9.57;6.45;;;282.40;2124.80;;;;;;5153602;27;20042;-63
2022/11/06 07:43:32;;;;;;;22.23;17.35;;;282.50;2278.40;;;;;;5153915;27;20118;-62
2022/11/06 07:46:03;;;;;;;11.48;10.27;;;282.40;2278.40;;;;;;5153671;27;20111;-65
2022/11/06 07:48:30;;;;;;;14.82;13.40;;;282.40;2278.40;;;;;;5153721;27;20060;-64
2022/11/06 07:50:56;;;;;;;13.10;12.00;;;282.50;2201.60;;;;;;5153159;27;20015;-67
2022/11/06 07:53:22;;;;;;;11.73;10.52;;;282.50;1945.60;;;;;;5153716;27;20175;-59
2022/11/06 07:55:52;;;;;;;8.43;6.35;;;307.20;1920.00;;;;;;5153496;27;20038;-57
2022/11/06 07:58:18;;;;;;;8.40;5.20;;;307.30;2304.00;;;;;;5153258;27;20023;-60
2022/11/06 08:00:48;;;;;;;6.55;4.38;;;307.30;2304.00;;;;;;5153463;27;20399;-66
2022/11/06 08:03:14;;;;;;;10.43;5.57;;;282.50;2252.80;;;;;;5153299;27;20019;-59
2022/11/06 08:05:40;;;;;;;10.35;8.18;;;307.20;2278.40;;;;;;5153304;27;20056;-67
2022/11/06 08:08:06;;;;;;;10.18;9.10;;;307.20;2252.80;;;;;;5153023;27;20019;-63
2022/11/06 08:10:32;;;;;;;8.48;7.38;;;307.20;2201.60;;;;;;5153564;27;20035;-58
2022/11/06 08:13:01;;;;;;;13.27;9.18;;;307.30;2304.00;;;;;;5142406;27;20022;-65
2022/11/06 08:15:26;;;;;;;8.57;5.75;;;307.30;2304.00;;;;;;5142764;27;20070;-62
2022/11/06 08:17:52;;;;;;;9.88;8.88;;;307.20;2304.00;;;;;;5132304;27;20019;-62
2022/11/06 08:20:18;;;;;;;7.90;6.40;;;307.20;2252.80;;;;;;5131511;27;20092;-63
2022/11/06 08:22:44;;;;;;;9.27;6.93;;;307.20;2227.20;;;;;;5131999;27;20019;-62
2022/11/06 08:25:09;;;;;;;11.50;9.10;;;307.20;2304.00;;;;;;5132458;27;20027;-60
2022/11/06 08:27:36;;;;;;;9.15;7.13;;;307.20;2304.00;;;;;;5132036;27;20562;-65
2022/11/06 08:30:03;;;;;;;9.75;7.63;;;307.20;2304.00;;;;;;5132282;27;20023;-67
2022/11/06 08:32:29;;;;;;;16.85;15.00;;;307.20;2304.00;;;;;;5132293;27;20358;-59
2022/11/06 08:34:55;;;;;;;17.88;14.38;;;307.30;2304.00;;;;;;5131890;27;20128;-64
2022/11/06 08:37:20;;;;;;;15.80;14.02;;;307.50;2304.00;;;;;;5149751;27;20027;-62
2022/11/06 08:39:46;;;;;;;14.60;12.35;;;307.50;2304.00;;;;;;5152450;27;20054;-64
2022/11/06 08:42:12;;;;;;;15.18;13.63;;;307.60;2304.00;;;;;;5136957;27;20051;-67
2022/11/06 08:44:38;;;;;;;16.27;13.77;;;307.60;2304.00;;;;;;5130895;27;20102;-67
2022/11/06 08:47:04;;;;;;;15.20;12.73;;;307.70;2304.00;;;;;;5150505;27;20034;-64
2022/11/06 08:49:30;;;;;;;13.43;11.40;;;307.70;2304.00;;;;;;5147501;27;20406;-66
2022/11/06 08:51:55;;;;;;;12.10;10.88;;;307.70;2304.00;;;;;;5150844;27;20054;-64
2022/11/06 08:54:21;;;;;;;9.07;6.97;;;307.70;2304.00;;;;;;5150989;27;20027;-68
2022/11/06 08:56:47;;;;;;;9.73;8.73;;;307.70;2304.00;;;;;;5150224;27;20027;-66
2022/11/06 08:59:13;;;;;;;9.85;8.85;;;307.70;2304.00;;;;;;5140433;27;20418;-70
2022/11/06 09:01:39;;;;;;;6.88;5.45;;;307.80;2304.00;;;;;;5130123;27;20031;-64
2022/11/06 09:04:04;;;;;;;7.10;5.90;;;307.80;2304.00;;;;;;5129647;27;20054;-64
2022/11/06 09:06:30;;;;;;;41.22;32.80;;;307.80;2304.00;;;;;;5129716;27;20020;-69
2022/11/06 09:08:56;;;;;;;10.30;6.40;;;307.90;2304.00;;;;;;5129518;27;20031;-67
2022/11/06 09:11:22;;;;;;;7.95;6.10;;;308.00;2304.00;;;;;;5129573;27;20035;-66
2022/11/06 09:13:47;;;;;;;8.00;6.10;;;308.00;2304.00;;;;;;5129772;27;20473;-64
2022/11/06 09:16:13;;;;;;;8.30;4.68;;;308.00;2304.00;;;;;;5129496;27;20046;-58
2022/11/06 09:18:39;;;;;;;5.45;4.53;;;308.10;2304.00;;;;;;5110851;27;20023;-63
2022/11/06 09:21:04;;;;;;;12.82;9.13;;;308.10;2304.00;;;;;;5134870;27;20026;-65
2022/11/06 09:23:30;;;;;;;6.40;3.92;;;332.80;2329.60;;;;;;5149877;27;20018;-63
2022/11/06 09:25:56;;;;;;;8.45;7.65;;;308.10;2304.00;;;;;;5150130;27;20472;-64
2022/11/06 09:28:23;;;;;;;5.90;5.10;;;308.10;2304.00;;;;;;5150227;27;20741;-62
2022/11/06 09:30:49;;;;;;;6.90;4.35;;;308.10;2304.00;;;;;;5150242;27;20023;-59
2022/11/06 09:33:14;;;;;;;5.90;4.03;;;308.10;2304.00;;;;;;5149649;27;20384;-63
2022/11/06 09:35:40;;;;;;;6.20;3.22;;;308.10;2304.00;;;;;;5150010;27;20042;-63
2022/11/06 09:38:09;;;;;;;10.68;5.55;;;308.10;2304.00;;;;;;5150528;27;20495;-63
2022/11/06 09:40:56;;;;;;;7.20;3.92;;;308.00;2304.00;;;;;;5151942;27;20150;-63
2022/11/06 09:43:40;;;;;;;13.63;7.50;;;308.00;2304.00;;;;;;5151833;27;20026;-61
2022/11/06 09:46:19;;;;;;;8.80;6.75;;;307.90;2304.00;;;;;;5151449;27;20102;-60
2022/11/06 09:48:49;;;;;;;5.82;3.65;;;307.70;2304.00;;;;;;5151387;27;20121;-61
2022/11/06 09:51:18;;;;;;;8.52;7.32;;;307.80;2304.00;;;;;;5151373;27;20096;-60
2022/11/06 09:53:54;;;;;;;11.85;10.75;;;307.80;2304.00;;;;;;5151480;27;20030;-61
2022/11/06 09:56:24;;;;;;;4.47;2.80;;;307.70;2304.00;;;;;;5151154;27;20539;-65
2022/11/06 09:58:51;;;;;;;5.25;3.97;;;307.60;2304.00;;;;;;5151325;27;20025;-63
2022/11/06 10:01:27;;;;;;;7.43;5.43;;;307.70;2304.00;;;;;;5151393;27;20039;-61
2022/11/06 10:03:58;;;;;;;5.18;3.47;;;307.60;2304.00;;;;;;5151343;27;20029;-61
2022/11/06 10:06:26;;;;;;;6.93;3.92;;;307.60;2304.00;;;;;;5151302;27;20023;-60
2022/11/06 10:09:00;;;;;;;4.97;3.30;;;307.60;2304.00;;;;;;5143405;27;20023;-61
2022/11/06 10:11:45;;;;;;;6.05;5.43;;;307.60;2304.00;;;;;;5135445;27;20023;-63
2022/11/06 10:14:35;;;;;;;4.93;3.28;;;307.60;2304.00;;;;;;5133386;27;20089;-64
2022/11/06 10:17:24;;;;;;;5.22;3.25;;;307.70;2304.00;;;;;;5137945;27;20024;-64
2022/11/06 10:20:03;;;;;;;5.32;3.65;;;307.80;2304.00;;;;;;5137269;27;20042;-63
2022/11/06 10:22:54;;;;;;;6.53;3.55;;;307.80;2304.00;;;;;;5139081;27;20026;-63
2022/11/06 10:25:26;;;;;;;4.88;3.05;;;307.90;2304.00;;;;;;5126457;28;20066;-64
2022/11/06 10:28:03;;;;;;;6.47;3.97;;;307.80;2304.00;;;;;;5130646;28;20023;-62
2022/11/06 10:31:00;;;;;;;6.18;4.18;;;307.80;2304.00;;;;;;5130632;28;20027;-61
2022/11/06 10:33:38;;;;;;;5.28;4.25;;;307.90;2304.00;;;;;;5132492;27;20026;-61
2022/11/06 10:36:35;;;;;;;7.13;4.85;;;307.90;2304.00;;;;;;5140946;27;20469;-62
2022/11/06 10:39:03;;;;;;;6.70;5.47;;;308.00;2304.00;;;;;;5046767;28;20041;-61
2022/11/06 10:41:33;;;;;;;8.55;6.25;;;308.10;2304.00;;;;;;5034064;28;20054;-61
2022/11/06 10:44:03;;;;;;;9.07;8.15;;;332.80;2329.60;;;;;;5027875;28;20484;-61
2022/11/06 10:46:35;;;;;;;5.57;4.13;;;308.10;2304.00;;;;;;5031071;28;20025;-61
2022/11/06 10:49:10;;;;;;;5.05;3.13;;;332.80;2329.60;;;;;;5029226;28;20037;-63
2022/11/06 10:52:01;;;;;;;5.95;3.47;;;332.80;2329.60;;;;;;5027879;28;20075;-62
2022/11/06 10:54:52;;;;;;;33.35;28.67;;;308.10;2304.00;;;;;;5022407;28;20033;-62
2022/11/06 10:57:42;;;;;;;5.43;4.25;;;332.80;2329.60;;;;;;5021125;28;20034;-61
2022/11/06 11:00:12;;;;;;;6.22;4.32;;;332.80;2329.60;;;;;;5021675;28;20387;-62
2022/11/06 11:02:58;;;;;;;25.88;23.17;;;308.10;2304.00;;;;;;5013881;28;20757;-63
2022/11/06 11:05:31;;;;;;;17.05;15.43;;;332.80;2329.60;;;;;;5008383;28;20204;-64
2022/11/06 11:07:57;;;;;;;5.28;3.90;;;308.10;2304.00;;;;;;5008546;28;20516;-62
2022/11/06 11:10:22;;;;;;;10.80;8.07;;;308.10;2304.00;;;;;;5008871;28;20042;-59
2022/11/06 11:12:55;;;;;;;4.65;3.03;;;308.00;2304.00;;;;;;5008699;28;20037;-60
2022/11/06 11:15:23;;;;;;;5.97;5.30;;;308.10;2304.00;;;;;;5049346;28;20048;-61
2022/11/06 11:18:16;;;;;;;7.70;6.53;;;308.10;2304.00;;;;;;5090703;28;20021;-61
2022/11/06 11:20:47;;;;;;;11.38;9.57;;;308.10;2304.00;;;;;;5090868;28;20036;-60
2022/11/06 11:23:15;;;;;;;5.20;4.35;;;308.10;2304.00;;;;;;5091064;28;20020;-60
2022/11/06 11:25:53;;;;;;;6.38;3.88;;;332.80;2329.60;;;;;;5091081;28;20047;-60
2022/11/06 11:28:35;;;;;;;6.68;5.47;;;308.10;2304.00;;;;;;5090988;28;20043;-60
2022/11/06 11:31:14;;;;;;;5.00;3.55;;;308.10;2304.00;;;;;;5089152;28;20367;-60
2022/11/06 11:33:47;;;;;;;5.30;3.67;;;332.80;2329.60;;;;;;5090721;28;20035;-61
2022/11/06 11:36:12;;;;;;;5.35;4.25;;;332.80;2329.60;;;;;;5090895;28;20113;-60
2022/11/06 11:38:40;;;;;;;5.95;3.67;;;332.90;2329.60;;;;;;5090628;28;20067;-60
2022/11/06 11:41:10;;;;;;;7.60;5.70;;;332.80;2329.60;;;;;;5111049;27;20139;-63
2022/11/06 11:43:36;;;;;;;21.02;17.90;;;332.80;2329.60;;;;;;5130995;27;20148;-63
2022/11/06 11:46:07;;;;;;;11.10;7.57;;;332.90;2329.60;;;;;;5131338;27;20102;-63
2022/11/06 11:48:42;;;;;;;12.38;10.38;;;332.90;2329.60;;;;;;5131294;27;20053;-63
2022/11/06 11:51:33;;;;;;;6.10;5.30;;;333.00;2329.60;;;;;;5131091;27;20048;-63
2022/11/06 11:54:10;;;;;;;8.98;7.65;;;333.00;2329.60;;;;;;5131304;27;20043;-63
2022/11/06 11:56:51;;;;;;;8.00;6.20;;;333.20;2329.60;;;;;;5130363;27;20034;-63
2022/11/06 11:59:27;;;;;;;5.90;4.93;;;333.10;2329.60;;;;;;5131059;27;20031;-63
2022/11/06 12:01:56;;;;;;;6.07;4.63;;;333.10;2329.60;;;;;;5130837;27;20102;-63
2022/11/06 12:04:37;;;;;;;5.47;4.72;;;333.00;2329.60;;;;;;5131215;27;20037;-63
2022/11/06 12:07:06;;;;;;;28.95;27.05;;;333.00;2329.60;;;;;;5130858;27;20050;-63
2022/11/06 12:09:42;;;;;;;5.88;4.72;;;333.00;2329.60;;;;;;5130626;27;20038;-62
2022/11/06 12:12:20;;;;;;;7.15;5.68;;;333.00;2329.60;;;;;;5130861;27;20054;-64
2022/11/06 12:14:46;;;;;;;5.57;4.53;;;333.00;2329.60;;;;;;5130778;27;20053;-61
2022/11/06 12:17:22;;;;;;;7.10;5.63;;;333.00;2329.60;;;;;;5131059;27;20114;-62
2022/11/06 12:19:56;;;;;;;8.50;6.30;;;333.00;2329.60;;;;;;5112204;27;20380;-63
2022/11/06 12:22:30;;;;;;;19.75;17.85;;;332.90;2329.60;;;;;;5132837;27;20521;-63
2022/11/06 12:25:17;;;;;;;13.40;12.15;;;332.80;2329.60;;;;;;5132296;27;20035;-64
2022/11/06 12:27:50;;;;;;;9.98;7.88;;;332.80;2329.60;;;;;;5132648;27;20023;-63
2022/11/06 12:30:18;;;;;;;9.98;7.25;;;332.80;2329.60;;;;;;5131972;27;20023;-64
2022/11/06 12:33:15;;;;;;;11.50;8.05;;;332.80;2329.60;;;;;;5132235;27;20068;-64
2022/11/06 12:35:46;;;;;;;22.70;19.10;;;308.10;2304.00;;;;;;5132315;27;20031;-63
2022/11/06 12:39:06;;;;;;;21.67;19.35;;;308.10;2304.00;;;;;;5131956;27;20019;-62
2022/11/06 12:41:39;;;;;;;25.15;20.40;;;308.10;2304.00;;;;;;5068545;28;20053;-63
2022/11/06 12:44:11;;;;;;;11.23;8.90;;;332.80;2329.60;;;;;;5056677;28;20146;-64
2022/11/06 12:46:58;;;;;;;9.50;8.07;;;332.80;2329.60;;;;;;5048528;28;20529;-62
2022/11/06 12:49:54;;;;;;;8.82;7.10;;;332.80;2329.60;;;;;;5048367;28;20037;-63
2022/11/06 12:52:47;;;;;;;13.07;9.60;;;308.10;2304.00;;;;;;5048437;28;20071;-63